Yonkers, NY (10710)

6:31 PM EDT on July 24, 2016 (GMT -0400)
Ardsley | | Change Station
Active Advisory: Heat Advisory Active Notice: Record Report

Elev 203 ft 41.00 °N, 73.84 °W | Updated 2 seconds ago

Clear
Clear
84.0 °F
Feels Like 86 °F
N
0.9
Wind Variable Wind from SSE
Gusts 2.5 mph

Today
High -- | Low -- °F
--% Chance of Precip.
Yesterday
High -- | Low -- °F
Precip. -- in
Pressure 29.93 in
Visibility 10.0 miles
Clouds Clear
Heat Index 86 °F
Dew Point 66 °F
Humidity 54%
Rainfall 0.00 in
Snow Depth Not available.
5:44 AM 8:18 PM
Waning Gibbous, 72% visible
METAR KHPN 242156Z 18009KT 10SM CLR 29/17 A2995 RMK AO2 SLP134 T02890167
Pressure 29.93 in
Visibility 10.0 miles
Clouds Clear
Heat Index 86 °F
Dew Point 66 °F
Humidity 54%
Rainfall 0.00 in
Snow Depth Not available.
5:44 AM 8:18 PM
Waning Gibbous, 72% visible
METAR KHPN 242156Z 18009KT 10SM CLR 29/17 A2995 RMK AO2 SLP134 T02890167

10-Day Weather Forecast

Almanac

Astronomy

Jul. 24, 2016 Rise Set
Actual Time
Civil Twilight
Nautical Twilight
Astronomical Twilight
Moon
Length of Visible Light
Length of Day
Tomorrow will be .
, % of the Moon is Illuminated

Today's Extremes

State Highs State Lows

Community

WunderPhotos

Upload Photos

1,927,205 photos uploaded!

WunderBlog® & News

Nearby

Air Quality

  Air Quality AQ Index Pollutant
Not available.

Snow Depth

Station Depth Elevation

Earthquake Activity

City Distance Mag. Time & Date
Minimum magnitude displayed is 2.5.

Coastal Water Temperatures

Place Temperature

Stations

Nearby Weather Stations

Station Location Temp. Windchill Dew Point Humidity Wind Precip. Elev Updated Type
                   

Watches & Warnings

Heat Advisory
Issued: 6:17 PM EDT Jul. 24, 2016 – National Weather Service

... Heat advisory remains in effect from noon to 8 PM EDT Monday...

* heat index values... around 100 due to temperatures near 90...
and dewpoints in the lower 70s.

* Timing... highest heat indices Monday afternoon.

* Impacts... the combination of the heat and humidity will
increase the risk for heat related health issues... especially
for the elderly... those with chronic health problems such as
lung and heart disease... those working outdoors... and other
heat sensitive groups of people.

Precautionary/preparedness actions...

A heat advisory is issued when the combination of heat and
humidity is expected to make it feel like it is 100 to
104 degrees for two consecutive hours.

To reduce risk during outdoor work the occupational safety and
health administration recommends scheduling frequent rest breaks
in shaded or air conditioned environments. Anyone overcome by
heat should be moved to a cool and shaded location. Heat stroke
is an emergency... call 9 1 1.